createdAt,value
2017-06-15T00:00:18.710Z,60.47
2017-06-15T00:00:59.235Z,60.38
2017-06-15T00:02:57.415Z,60.28
2017-06-15T00:03:37.902Z,60.54
2017-06-15T00:04:18.426Z,60.83
2017-06-15T00:04:58.936Z,60.54
2017-06-15T00:05:39.450Z,60.73
2017-06-15T00:06:19.953Z,60.54
2017-06-15T00:07:00.487Z,60.44
2017-06-15T00:07:41.028Z,60.64
2017-06-15T00:08:21.549Z,60.64
2017-06-15T00:09:02.058Z,60.64
2017-06-15T00:09:42.575Z,60.73
2017-06-15T00:10:23.098Z,61.12
2017-06-15T00:11:03.625Z,61.22
2017-06-15T00:11:44.135Z,61.41
2017-06-15T00:12:24.707Z,61.51
2017-06-15T00:13:05.180Z,61.41
2017-06-15T00:13:45.676Z,61.51
2017-06-15T00:15:43.850Z,60.83
2017-06-15T00:16:24.358Z,60.35
2017-06-15T00:17:04.888Z,60.54
2017-06-15T00:17:45.394Z,60.44
2017-06-15T00:18:25.899Z,60.64
2017-06-15T00:19:06.386Z,60.54
2017-06-15T00:19:46.923Z,60.25
2017-06-15T00:20:27.423Z,60.54
2017-06-15T00:21:07.967Z,60.35
2017-06-15T00:21:48.486Z,60.54
2017-06-15T00:22:29.031Z,60.64
2017-06-15T00:23:09.534Z,60.73
2017-06-15T00:23:50.047Z,60.54
2017-06-15T00:24:30.578Z,60.31
2017-06-15T00:25:11.155Z,60.35
2017-06-15T00:25:51.669Z,60.51
2017-06-15T00:26:32.184Z,60.61
2017-06-15T00:27:12.703Z,60.89
2017-06-15T00:27:53.238Z,60.61
2017-06-15T00:28:33.771Z,60.25
2017-06-15T00:29:14.260Z,60.54
2017-06-15T00:29:54.769Z,60.35
2017-06-15T00:31:47.888Z,60.35
2017-06-15T00:32:28.404Z,60.35
2017-06-15T00:33:08.982Z,60.61
2017-06-15T00:33:49.540Z,60.61
2017-06-15T00:34:30.062Z,60.64
2017-06-15T00:35:10.649Z,60.71
2017-06-15T00:35:51.179Z,60.54
2017-06-15T00:36:31.664Z,60.51
2017-06-15T00:37:12.181Z,60.99
2017-06-15T00:37:52.687Z,61.19
2017-06-15T00:38:33.198Z,61.28
2017-06-15T00:39:13.705Z,61.09
2017-06-15T00:39:54.358Z,60.89
2017-06-15T00:40:34.883Z,61.47
2017-06-15T00:41:15.382Z,61.28
2017-06-15T00:41:55.930Z,61.19
2017-06-15T00:42:36.424Z,61.47
2017-06-15T00:43:16.948Z,61.38
2017-06-15T00:43:57.442Z,61.67
2017-06-15T00:44:37.941Z,61.28
2017-06-15T00:45:18.474Z,62.15
2017-06-15T00:45:59.018Z,62.05
2017-06-15T00:46:39.551Z,61.74
2017-06-15T00:47:20.061Z,62.22
2017-06-15T00:49:33.375Z,62.6
2017-06-15T00:50:13.898Z,62.41
2017-06-15T00:50:54.410Z,62.22
2017-06-15T00:51:34.929Z,61.83
2017-06-15T00:52:15.473Z,61.96
2017-06-15T00:52:55.948Z,61.83
2017-06-15T00:53:36.470Z,61.77
2017-06-15T00:54:17.014Z,62.15
2017-06-15T00:54:57.518Z,61.77
2017-06-15T00:55:38.053Z,61.77
2017-06-15T00:56:18.571Z,61.67
2017-06-15T00:56:59.084Z,61.86
2017-06-15T00:57:39.586Z,62.15
2017-06-15T00:58:20.078Z,61.86
2017-06-15T00:59:00.587Z,61.77
2017-06-15T00:59:41.113Z,62.05
2017-06-15T01:00:21.618Z,61.25
2017-06-15T01:01:02.136Z,61.28
2017-06-15T01:01:42.666Z,61.38
2017-06-15T01:02:23.172Z,61.28
2017-06-15T01:03:03.664Z,61.54
2017-06-15T01:03:44.214Z,61.09
2017-06-15T01:04:24.751Z,61.47
2017-06-15T01:05:05.266Z,61.38
2017-06-15T01:05:45.803Z,61.67
2017-06-15T01:06:26.277Z,61.93
2017-06-15T01:07:06.796Z,62.12
2017-06-15T01:07:47.321Z,62.02
2017-06-15T01:08:27.825Z,62.02
2017-06-15T01:09:08.351Z,62.02
2017-06-15T01:09:48.873Z,62.51
2017-06-15T01:10:29.422Z,62.7
2017-06-15T01:11:09.933Z,61.93
2017-06-15T01:11:50.443Z,62.89
2017-06-15T01:12:30.985Z,62.76
2017-06-15T01:13:11.496Z,62.89
2017-06-15T01:13:51.977Z,62.89
2017-06-15T01:14:32.566Z,62.12
2017-06-15T01:15:13.001Z,62.6
2017-06-15T01:15:53.538Z,62.96
2017-06-15T01:16:34.024Z,63.15
2017-06-15T01:17:14.538Z,62.76
2017-06-15T01:17:55.065Z,63.06
2017-06-15T01:18:35.587Z,63.24
2017-06-15T01:19:16.104Z,63.15
2017-06-15T01:19:56.605Z,63.54
2017-06-15T01:20:37.135Z,62.66
2017-06-15T01:21:17.663Z,62.76
2017-06-15T01:21:58.181Z,63.24
2017-06-15T01:22:38.725Z,63.24
2017-06-15T01:23:19.253Z,63.73
2017-06-15T01:24:00.967Z,63.15
2017-06-15T01:24:40.264Z,63.24
2017-06-15T01:25:20.799Z,62.96
2017-06-15T01:26:01.285Z,63.44
2017-06-15T01:26:41.804Z,63.12
2017-06-15T01:27:22.311Z,63.98
2017-06-15T01:28:02.804Z,64.02
2017-06-15T01:28:43.345Z,64.18
2017-06-15T01:29:23.879Z,64.18
2017-06-15T01:30:04.472Z,64.21
2017-06-15T01:30:44.978Z,64.18
2017-06-15T01:32:43.190Z,64.18
2017-06-15T01:33:23.701Z,64.47
2017-06-15T01:34:04.199Z,64.47
2017-06-15T01:34:44.721Z,64.56
2017-06-15T01:35:25.231Z,64.66
2017-06-15T01:36:05.739Z,64.37
2017-06-15T01:36:46.264Z,64.18
2017-06-15T01:37:26.778Z,64.31
2017-06-15T01:38:07.308Z,63.82
2017-06-15T01:38:47.828Z,63.82
2017-06-15T01:39:28.312Z,63.98
2017-06-15T01:40:09.000Z,63.98
2017-06-15T01:40:49.523Z,64.56
2017-06-15T01:41:30.126Z,63.92
2017-06-15T01:42:10.633Z,63.15
2017-06-15T01:42:51.136Z,63.73
2017-06-15T01:43:33.465Z,63.24
2017-06-15T01:45:34.638Z,64.47
2017-06-15T01:46:15.222Z,64.18
2017-06-15T01:46:56.481Z,63.92
2017-06-15T01:48:44.472Z,64.28
2017-06-15T01:49:25.155Z,64.37
2017-06-15T01:50:05.996Z,64.18
2017-06-15T01:50:46.498Z,64.31
2017-06-15T01:51:27.667Z,64.08
2017-06-15T01:52:10.089Z,64.5
2017-06-15T01:52:51.424Z,64.76
2017-06-15T01:53:32.907Z,64.56
2017-06-15T01:54:13.395Z,64.31
2017-06-15T01:56:32.962Z,64.11
2017-06-15T01:57:13.495Z,64.02
2017-06-15T01:57:54.001Z,63.54
2017-06-15T01:58:34.514Z,63.79
2017-06-15T01:59:15.076Z,64.56
2017-06-15T01:59:55.552Z,64.21
2017-06-15T02:00:36.071Z,64.4
2017-06-15T02:01:16.597Z,64.37
2017-06-15T02:01:57.148Z,64.56
2017-06-15T02:02:37.667Z,64.08
2017-06-15T02:03:18.181Z,64.08
2017-06-15T02:03:58.705Z,64.28
2017-06-15T02:04:39.193Z,64.47
2017-06-15T02:05:19.725Z,64.47
2017-06-15T02:06:00.246Z,64.56
2017-06-15T02:06:40.882Z,64.11
2017-06-15T02:07:21.382Z,64.5
2017-06-15T02:08:01.904Z,64.31
2017-06-15T02:10:15.178Z,63.73
2017-06-15T02:10:55.675Z,64.02
2017-06-15T02:11:36.185Z,63.73
2017-06-15T02:12:16.700Z,64.11
2017-06-15T02:12:57.281Z,63.92
2017-06-15T02:13:37.796Z,64.47
2017-06-15T02:14:18.307Z,64.28
2017-06-15T02:14:58.828Z,64.31
2017-06-15T02:15:39.388Z,64.21
2017-06-15T02:16:19.850Z,64.4
2017-06-15T02:17:00.440Z,64.31
2017-06-15T02:17:40.954Z,64.11
2017-06-15T02:18:21.471Z,63.92
2017-06-15T02:19:01.998Z,64.31
2017-06-15T02:19:42.524Z,64.11
2017-06-15T02:20:23.052Z,63.92
2017-06-15T02:21:03.571Z,64.37
2017-06-15T02:21:44.087Z,64.86
2017-06-15T02:22:24.643Z,65.05
2017-06-15T02:23:05.174Z,64.56
2017-06-15T02:23:45.707Z,64.95
2017-06-15T02:24:26.222Z,64.56
2017-06-15T02:25:06.735Z,64.76
2017-06-15T02:25:47.246Z,64.37
2017-06-15T02:26:27.754Z,64.5
2017-06-15T02:27:08.269Z,64.28
2017-06-15T02:27:48.785Z,64.31
2017-06-15T02:28:29.318Z,64.21
2017-06-15T02:29:09.849Z,64.28
2017-06-15T02:29:50.347Z,64.47
2017-06-15T02:30:30.866Z,64.37
2017-06-15T02:31:11.398Z,64.08
2017-06-15T02:31:51.941Z,64.59
2017-06-15T02:32:32.457Z,64.28
2017-06-15T02:33:13.010Z,64.4
2017-06-15T02:33:53.519Z,64.28
2017-06-15T02:34:34.036Z,64.66
2017-06-15T02:35:14.575Z,64.59
2017-06-15T02:35:55.091Z,64.56
2017-06-15T02:36:35.627Z,64.79
2017-06-15T02:37:16.161Z,64.31
2017-06-15T02:37:56.662Z,65.24
2017-06-15T02:38:37.180Z,64.95
2017-06-15T02:39:17.706Z,65.24
2017-06-15T02:39:58.224Z,65.24
2017-06-15T02:40:38.735Z,64.76
2017-06-15T02:41:19.260Z,64.76
2017-06-15T02:41:59.753Z,64.95
2017-06-15T02:42:40.452Z,64.56
2017-06-15T02:43:20.959Z,64.56
2017-06-15T02:44:01.477Z,65.24
2017-06-15T02:44:41.976Z,65.53
2017-06-15T02:45:22.505Z,65.53
2017-06-15T02:46:03.006Z,66.36
2017-06-15T02:46:43.522Z,66.75
2017-06-15T02:47:24.039Z,66.36
2017-06-15T02:48:04.545Z,66.39
2017-06-15T02:48:45.031Z,66.27
2017-06-15T02:49:25.539Z,66.46
2017-06-15T02:50:06.050Z,66.36
2017-06-15T02:50:46.547Z,66.75
2017-06-15T02:51:27.037Z,66.17
2017-06-15T02:52:07.551Z,67.13
2017-06-15T02:52:48.076Z,66.46
2017-06-15T02:53:28.555Z,66.59
2017-06-15T02:54:09.071Z,65.53
2017-06-15T02:54:49.572Z,66.36
2017-06-15T02:55:30.085Z,65.81
2017-06-15T02:56:10.583Z,65.43
2017-06-15T02:56:51.145Z,65.72
2017-06-15T02:57:31.673Z,65.78
2017-06-15T02:58:12.214Z,65.88
2017-06-15T02:58:52.708Z,66.36
2017-06-15T02:59:33.239Z,66.55
2017-06-15T03:00:13.744Z,66.55
2017-06-15T03:00:54.268Z,66.2
2017-06-15T03:01:34.786Z,65.88
2017-06-15T03:02:15.308Z,65.91
2017-06-15T03:02:55.837Z,66.65
2017-06-15T03:03:36.350Z,65.98
2017-06-15T03:04:16.865Z,66.36
2017-06-15T03:04:57.368Z,66.75
2017-06-15T03:05:37.883Z,67.52
2017-06-15T03:06:18.390Z,66.94
2017-06-15T03:06:58.866Z,66.85
2017-06-15T03:07:39.380Z,67.23
2017-06-15T03:08:19.913Z,66.94
2017-06-15T03:09:00.406Z,66.75
2017-06-15T03:09:40.952Z,66.65
2017-06-15T03:10:21.467Z,66.07
2017-06-15T03:11:01.993Z,66.55
2017-06-15T03:11:42.505Z,66.46
2017-06-15T03:12:23.008Z,66.36
2017-06-15T03:13:03.520Z,66.39
2017-06-15T03:13:44.027Z,66.39
2017-06-15T03:14:24.546Z,65.72
2017-06-15T03:15:05.043Z,65.43
2017-06-15T03:15:45.580Z,66.27
2017-06-15T03:16:26.113Z,66.17
2017-06-15T03:17:06.598Z,65.91
2017-06-15T03:17:47.118Z,65.72
2017-06-15T03:18:27.628Z,65.88
2017-06-15T03:19:08.158Z,66.65
2017-06-15T03:19:48.625Z,66.27
2017-06-15T03:20:29.166Z,66.2
2017-06-15T03:21:09.683Z,65.81
2017-06-15T03:21:50.209Z,65.81
2017-06-15T03:22:30.749Z,65.81
2017-06-15T03:24:44.045Z,65.91
2017-06-15T03:25:24.575Z,65.33
2017-06-15T03:26:05.130Z,65.43
2017-06-15T03:26:45.862Z,65.63
2017-06-15T03:27:26.381Z,65.33
2017-06-15T03:28:06.912Z,65.24
2017-06-15T03:28:47.468Z,65.63
2017-06-15T03:29:27.932Z,65.63
2017-06-15T03:30:08.449Z,65.72
2017-06-15T03:30:48.958Z,65.81
2017-06-15T03:32:47.230Z,65.53
2017-06-15T03:33:27.709Z,65.53
2017-06-15T03:34:08.223Z,65.47
2017-06-15T03:34:48.997Z,65.37
2017-06-15T03:35:29.509Z,65.05
2017-06-15T03:36:10.025Z,65.33
2017-06-15T03:36:50.536Z,65.08
2017-06-15T03:37:31.055Z,65.37
2017-06-15T03:38:11.563Z,65.08
2017-06-15T03:38:52.062Z,65.27
2017-06-15T03:41:10.451Z,65.17
2017-06-15T03:41:50.993Z,65.47
2017-06-15T03:42:31.509Z,64.59
2017-06-15T03:43:11.988Z,64.89
2017-06-15T03:43:52.489Z,64.89
2017-06-15T03:44:33.007Z,64.4
2017-06-15T03:45:13.583Z,64.79
2017-06-15T03:45:54.137Z,64.59
2017-06-15T03:46:34.638Z,65.27
2017-06-15T03:47:15.195Z,64.79
2017-06-15T03:47:55.661Z,64.79
2017-06-15T03:48:36.176Z,64.59
2017-06-15T03:50:30.252Z,64.98
2017-06-15T03:51:10.763Z,64.59
2017-06-15T03:51:51.255Z,64.59
2017-06-15T03:52:31.783Z,66.01
2017-06-15T03:53:12.284Z,65.47
2017-06-15T03:53:52.797Z,65.47
2017-06-15T03:54:33.328Z,65.63
2017-06-15T03:55:13.959Z,65.43
2017-06-15T03:55:54.491Z,65.72
2017-06-15T03:56:34.983Z,65.63
2017-06-15T03:57:15.505Z,65.63
2017-06-15T03:57:56.029Z,65.85
2017-06-15T03:58:36.544Z,65.85
2017-06-15T03:59:17.063Z,65.27
2017-06-15T03:59:57.585Z,65.27
2017-06-15T04:00:38.115Z,65.37
2017-06-15T04:01:18.626Z,65.66
2017-06-15T04:01:59.128Z,64.79
2017-06-15T04:02:39.655Z,64.59
2017-06-15T04:03:20.151Z,64.59
2017-06-15T04:04:00.695Z,64.89
2017-06-15T04:04:41.201Z,64.79
2017-06-15T04:05:21.707Z,64.98
2017-06-15T04:06:02.215Z,65.27
2017-06-15T04:06:42.730Z,64.05
2017-06-15T04:07:23.267Z,63.57
2017-06-15T04:08:03.821Z,63.28
2017-06-15T04:08:44.315Z,63.37
2017-06-15T04:09:24.837Z,63.37
2017-06-15T04:10:05.343Z,63.37
2017-06-15T04:10:45.850Z,63.57
2017-06-15T04:11:26.367Z,64.15
2017-06-15T04:12:06.907Z,64.15
2017-06-15T04:12:47.420Z,63.57
2017-06-15T04:13:27.948Z,63.57
2017-06-15T04:14:08.467Z,63.28
2017-06-15T04:14:48.992Z,63.37
2017-06-15T04:15:29.509Z,63.09
2017-06-15T04:16:10.028Z,63.37
2017-06-15T04:18:28.437Z,63.37
2017-06-15T04:19:09.036Z,63.57
2017-06-15T04:19:49.511Z,63.37
2017-06-15T04:20:30.029Z,63.5
2017-06-15T04:21:10.580Z,63.28
2017-06-15T04:21:51.109Z,63.31
2017-06-15T04:22:31.661Z,62.92
2017-06-15T04:23:12.169Z,63.21
2017-06-15T04:23:52.715Z,63.21
2017-06-15T04:24:33.237Z,62.82
2017-06-15T04:25:13.762Z,63.18
2017-06-15T04:25:54.280Z,63.21
2017-06-15T04:26:34.796Z,63.21
2017-06-15T04:27:15.319Z,62.73
2017-06-15T04:27:55.832Z,62.82
2017-06-15T04:28:36.373Z,62.92
2017-06-15T04:29:16.866Z,62.73
2017-06-15T04:29:57.379Z,62.54
2017-06-15T04:30:37.875Z,62.63
2017-06-15T04:31:18.385Z,62.63
2017-06-15T04:31:58.900Z,62.15
2017-06-15T04:32:39.453Z,62.44
2017-06-15T04:33:19.971Z,62.34
2017-06-15T04:34:00.511Z,62.18
2017-06-15T04:34:41.029Z,62.54
2017-06-15T04:35:21.546Z,62.82
2017-06-15T04:37:09.551Z,63.02
2017-06-15T04:37:50.167Z,62.76
2017-06-15T04:38:30.760Z,62.57
2017-06-15T04:39:11.238Z,62.28
2017-06-15T04:39:51.761Z,61.89
2017-06-15T04:40:32.259Z,62.28
2017-06-15T04:41:12.759Z,62.08
2017-06-15T04:41:53.267Z,61.34
2017-06-15T04:42:33.784Z,59.66
2017-06-15T04:43:14.305Z,58.44
2017-06-15T04:43:54.820Z,56.26
2017-06-15T04:44:35.351Z,55.49
2017-06-15T04:46:53.716Z,55.94
2017-06-15T04:47:34.251Z,56.7
2017-06-15T04:48:14.793Z,57.76
2017-06-15T04:48:55.307Z,58.12
2017-06-15T04:49:35.818Z,58.31
2017-06-15T04:50:16.328Z,59.38
2017-06-15T04:50:56.845Z,59.25
2017-06-15T04:51:37.350Z,59.44
2017-06-15T04:52:17.876Z,59.53
2017-06-15T04:52:58.400Z,60.21
2017-06-15T04:53:38.898Z,60.38
2017-06-15T04:54:19.412Z,60.28
2017-06-15T04:54:59.949Z,60.02
2017-06-15T04:55:40.488Z,59.44
2017-06-15T04:56:20.994Z,59.38
2017-06-15T04:57:01.514Z,59.38
2017-06-15T04:57:42.040Z,59.53
2017-06-15T04:58:22.567Z,59.34
2017-06-15T05:00:35.884Z,59.92
2017-06-15T05:01:16.381Z,59.92
2017-06-15T05:01:56.898Z,60.18
2017-06-15T05:02:37.637Z,60.38
2017-06-15T05:03:18.146Z,60.67
2017-06-15T05:05:06.126Z,60.57
2017-06-15T05:05:46.655Z,60.76
2017-06-15T05:06:27.794Z,60.57
2017-06-15T05:07:08.532Z,60.67
2017-06-15T05:07:49.034Z,60.57
2017-06-15T05:09:42.484Z,60.28
2017-06-15T05:10:22.997Z,60.28
2017-06-15T05:11:03.582Z,60.38
2017-06-15T05:11:44.022Z,59.99
2017-06-15T05:12:24.538Z,60.47
2017-06-15T05:13:05.050Z,60.09
2017-06-15T05:13:45.560Z,60.18
2017-06-15T05:14:26.055Z,60.67
2017-06-15T05:15:06.615Z,60.28
2017-06-15T05:15:47.128Z,60.09
2017-06-15T05:16:27.647Z,60.02
2017-06-15T05:17:08.152Z,59.34
2017-06-15T05:17:48.668Z,59.28
2017-06-15T05:18:29.185Z,59.08
2017-06-15T05:19:09.740Z,59.63
2017-06-15T05:19:50.398Z,59.38
2017-06-15T05:20:30.906Z,59.08
2017-06-15T05:21:11.440Z,59.28
2017-06-15T05:21:51.951Z,59.18
2017-06-15T05:22:32.498Z,59.38
2017-06-15T05:23:13.010Z,59.47
2017-06-15T05:23:53.537Z,58.4
2017-06-15T05:24:34.047Z,58.44
2017-06-15T05:25:14.549Z,58.14
2017-06-15T05:25:55.061Z,57.37
2017-06-15T05:26:35.584Z,57.66
2017-06-15T05:27:16.109Z,57.66
2017-06-15T05:27:56.639Z,56.7
2017-06-15T05:28:37.138Z,56.7
2017-06-15T05:29:17.658Z,57.18
2017-06-15T05:29:58.171Z,57.66
2017-06-15T05:30:38.690Z,57.76
2017-06-15T05:31:19.176Z,57.76
2017-06-15T05:31:59.697Z,57.76
2017-06-15T05:32:40.229Z,57.56
2017-06-15T05:33:20.732Z,57.86
2017-06-15T05:34:01.246Z,57.86
2017-06-15T05:34:41.796Z,57.66
2017-06-15T05:35:22.258Z,57.37
2017-06-15T05:38:42.960Z,58.02
2017-06-15T05:39:23.507Z,57.92
2017-06-15T05:40:03.987Z,57.66
2017-06-15T05:41:57.058Z,58.02
2017-06-15T05:42:37.572Z,58.4
2017-06-15T05:43:18.116Z,58.24
2017-06-15T05:43:58.757Z,58.21
2017-06-15T05:44:39.277Z,58.02
2017-06-15T05:45:19.794Z,58.4
2017-06-15T05:46:00.328Z,58.31
2017-06-15T05:46:40.845Z,58.4
2017-06-15T05:47:21.374Z,58.21
2017-06-15T05:49:19.649Z,57.95
2017-06-15T05:50:00.188Z,58.31
2017-06-15T05:50:40.705Z,58.14
2017-06-15T05:51:21.248Z,58.02
2017-06-15T05:52:01.811Z,57.66
2017-06-15T05:52:42.524Z,57.37
2017-06-15T05:54:30.530Z,56.88
2017-06-15T05:55:11.049Z,57.01
2017-06-15T05:55:51.561Z,55.78
2017-06-15T05:56:32.083Z,54.96
2017-06-15T05:58:25.217Z,48.15
2017-06-15T05:59:05.727Z,46.51
2017-06-15T05:59:46.252Z,45.1
2017-06-15T06:00:26.783Z,44.24
2017-06-15T06:01:07.339Z,43.27
2017-06-15T06:01:47.884Z,43.1
2017-06-15T06:02:28.413Z,42.71
2017-06-15T06:03:08.924Z,42.41
2017-06-15T06:03:49.422Z,42.51
2017-06-15T06:04:29.953Z,42.88
2017-06-15T06:05:10.489Z,43.08
2017-06-15T06:05:50.955Z,43.37
2017-06-15T06:06:31.463Z,43.74
2017-06-15T06:07:11.999Z,44.23
2017-06-15T06:07:52.504Z,44.2
2017-06-15T06:08:33.022Z,44.69
2017-06-15T06:09:13.531Z,44.62
2017-06-15T06:09:54.063Z,44.81
2017-06-15T06:10:34.563Z,44.79
2017-06-15T06:11:15.086Z,44.98
2017-06-15T06:11:55.636Z,44.98
2017-06-15T06:12:36.183Z,45.37
2017-06-15T06:13:16.713Z,44.98
2017-06-15T06:13:57.183Z,45.15
2017-06-15T06:14:37.701Z,45.28
2017-06-15T06:16:25.722Z,46.03
2017-06-15T06:17:06.218Z,46.03
2017-06-15T06:17:46.738Z,45.74
2017-06-15T06:18:27.261Z,45.64
2017-06-15T06:19:07.779Z,45.57
2017-06-15T06:19:48.315Z,45.47
2017-06-15T06:20:28.795Z,45.67
2017-06-15T06:22:21.980Z,45.37
2017-06-15T06:23:02.478Z,45.29
2017-06-15T06:23:42.992Z,44.71
2017-06-15T06:24:23.522Z,44.69
2017-06-15T06:25:04.042Z,44.98
2017-06-15T06:25:44.591Z,44.79
2017-06-15T06:26:25.119Z,44.79
2017-06-15T06:28:38.400Z,45.28
2017-06-15T06:29:19.025Z,45.47
2017-06-15T06:29:59.479Z,45.28
2017-06-15T06:30:40.007Z,44.98
2017-06-15T06:31:20.556Z,45
2017-06-15T06:32:01.062Z,45
2017-06-15T06:32:41.569Z,45
2017-06-15T06:33:22.135Z,45.2
2017-06-15T06:34:02.720Z,44.71
2017-06-15T06:34:43.253Z,45.1
2017-06-15T06:35:24.183Z,45.28
2017-06-15T06:36:04.717Z,45.1
2017-06-15T06:36:45.363Z,44.71
2017-06-15T06:38:39.672Z,45.2
2017-06-15T06:39:20.466Z,45.2
2017-06-15T06:40:01.318Z,45.2
2017-06-15T06:40:41.852Z,45.37
2017-06-15T06:41:22.457Z,45.18
2017-06-15T06:42:03.124Z,45.67
2017-06-15T06:42:43.723Z,45.67
2017-06-15T06:43:24.314Z,45.37
2017-06-15T06:44:04.861Z,45.47
2017-06-15T06:44:45.314Z,45.29
2017-06-15T06:45:25.836Z,45.2
2017-06-15T06:46:06.469Z,45.1
2017-06-15T06:46:47.409Z,45.1
2017-06-15T06:47:28.379Z,45.29
2017-06-15T06:48:08.875Z,45.1
2017-06-15T06:48:49.921Z,45.39
2017-06-15T06:49:30.422Z,45.68
2017-06-15T06:50:10.927Z,45.95
2017-06-15T06:50:51.411Z,45.98
2017-06-15T06:51:32.092Z,45.67
2017-06-15T06:52:12.614Z,46.42
2017-06-15T06:52:53.105Z,47.22
2017-06-15T06:53:33.834Z,47.88
2017-06-15T06:54:14.339Z,47.49
2017-06-15T06:54:54.885Z,47.69
2017-06-15T06:55:35.448Z,47.59
2017-06-15T06:56:16.082Z,47.22
2017-06-15T06:56:57.136Z,47.3
2017-06-15T06:57:38.084Z,47.42
2017-06-15T06:58:18.923Z,47.32
2017-06-15T06:58:59.647Z,46.83
2017-06-15T06:59:39.865Z,47.03
2017-06-15T07:00:20.343Z,47.22
2017-06-15T07:01:00.876Z,47.03
2017-06-15T07:01:41.410Z,47.52
2017-06-15T07:02:21.875Z,48
2017-06-15T07:03:02.492Z,47.03
2017-06-15T07:03:42.973Z,46.83
2017-06-15T07:04:23.962Z,46.64
2017-06-15T07:05:04.587Z,46.73
2017-06-15T07:05:44.981Z,46.93
2017-06-15T07:06:26.192Z,46.64
2017-06-15T07:07:06.878Z,46.73
2017-06-15T07:07:47.930Z,47.03
2017-06-15T07:08:27.938Z,47.03
2017-06-15T07:09:08.660Z,47.39
2017-06-15T07:09:54.269Z,47.2
2017-06-15T07:10:34.778Z,46.71
2017-06-15T07:11:15.194Z,47.13
2017-06-15T07:11:55.742Z,47.22
2017-06-15T07:12:36.239Z,46.54
2017-06-15T07:13:16.754Z,46.64
2017-06-15T07:13:57.235Z,46.93
2017-06-15T07:14:37.785Z,46.93
2017-06-15T07:15:18.378Z,47.03
2017-06-15T07:15:58.929Z,46.93
2017-06-15T07:16:39.508Z,47.39
2017-06-15T07:17:20.021Z,46.93
2017-06-15T07:18:00.679Z,47.42
2017-06-15T07:18:41.182Z,46.83
2017-06-15T07:19:21.794Z,47.03
2017-06-15T07:20:02.416Z,46.93
2017-06-15T07:20:42.927Z,47.42
2017-06-15T07:21:23.460Z,47.03
2017-06-15T07:22:03.980Z,47.22
2017-06-15T07:22:44.441Z,46.64
2017-06-15T07:23:25.134Z,47.03
2017-06-15T07:24:05.963Z,47.39
2017-06-15T07:24:46.752Z,47.69
2017-06-15T07:25:27.243Z,47.78
2017-06-15T07:26:08.863Z,47.86
2017-06-15T07:26:49.573Z,48.54
2017-06-15T07:27:29.951Z,48.15
2017-06-15T07:28:10.804Z,47.98
2017-06-15T07:28:51.755Z,47.78
2017-06-15T07:29:32.276Z,47.59
2017-06-15T07:30:12.809Z,47.88
2017-06-15T07:30:53.332Z,47.39
2017-06-15T07:31:33.807Z,47.49
2017-06-15T07:32:14.293Z,47.69
2017-06-15T07:32:54.725Z,47.88
2017-06-15T07:33:35.279Z,47.88
2017-06-15T07:34:15.765Z,47.78
2017-06-15T07:34:56.257Z,48.17
2017-06-15T07:35:36.735Z,48.54
2017-06-15T07:36:17.251Z,48.44
2017-06-15T07:36:57.767Z,48.54
2017-06-15T07:37:38.282Z,48.85
2017-06-15T07:38:18.800Z,48.75
2017-06-15T07:38:59.312Z,48.66
2017-06-15T07:39:39.849Z,49.24
2017-06-15T07:40:20.356Z,48.75
2017-06-15T07:41:00.904Z,48.56
2017-06-15T07:41:41.410Z,48.85
2017-06-15T07:42:21.859Z,48.66
2017-06-15T07:43:02.359Z,48.73
2017-06-15T07:43:42.848Z,48.66
2017-06-15T07:44:23.395Z,48.46
2017-06-15T07:45:03.947Z,48.46
2017-06-15T07:45:44.555Z,48.56
2017-06-15T07:46:25.048Z,48.75
2017-06-15T07:47:05.547Z,48.85
2017-06-15T07:47:46.055Z,49.15
2017-06-15T07:48:26.566Z,48.46
2017-06-15T07:49:07.049Z,48.36
2017-06-15T07:49:47.587Z,48.75
2017-06-15T07:50:28.113Z,48.17
2017-06-15T07:51:08.566Z,48.88
2017-06-15T07:51:49.089Z,48.58
2017-06-15T07:52:29.624Z,48.85
2017-06-15T07:53:10.074Z,49.05
2017-06-15T07:53:50.595Z,48.88
2017-06-15T07:54:31.086Z,49.27
2017-06-15T07:55:11.613Z,49.07
2017-06-15T07:55:52.124Z,49.15
2017-06-15T07:56:32.601Z,48.78
2017-06-15T07:57:13.409Z,48.78
2017-06-15T07:57:53.961Z,49.05
2017-06-15T07:58:34.404Z,48.85
2017-06-15T07:59:14.908Z,48.95
2017-06-15T07:59:55.420Z,48.75
2017-06-15T08:00:35.943Z,48.95
2017-06-15T08:01:16.429Z,48.88
2017-06-15T08:01:56.959Z,49.17
2017-06-15T08:02:37.458Z,48.39
2017-06-15T08:03:17.949Z,49.15
2017-06-15T08:03:58.447Z,49.07
2017-06-15T08:04:38.976Z,48.97
2017-06-15T08:05:19.522Z,48.66
2017-06-15T08:06:00.141Z,49.07
2017-06-15T08:06:40.633Z,48.88
2017-06-15T08:07:21.487Z,48.58
2017-06-15T08:08:02.014Z,48.39
2017-06-15T08:08:42.543Z,48.68
2017-06-15T08:09:23.070Z,48.39
2017-06-15T08:10:03.646Z,49.17
2017-06-15T08:10:44.098Z,49.07
2017-06-15T08:11:24.610Z,48.78
2017-06-15T08:12:05.105Z,48.97
2017-06-15T08:12:45.617Z,49.17
2017-06-15T08:13:26.091Z,49.17
2017-06-15T08:14:06.639Z,48.58
2017-06-15T08:14:47.090Z,50.04
2017-06-15T08:15:27.629Z,50.82
2017-06-15T08:16:08.050Z,49.34
2017-06-15T08:16:48.552Z,50.31
2017-06-15T08:17:29.138Z,50.92
2017-06-15T08:18:10.092Z,49.85
2017-06-15T08:18:50.376Z,49.46
2017-06-15T08:19:30.901Z,49.46
2017-06-15T08:20:11.497Z,49.76
2017-06-15T08:20:51.969Z,49.56
2017-06-15T08:21:32.432Z,49.17
2017-06-15T08:22:12.976Z,50.34
2017-06-15T08:22:53.449Z,49.56
2017-06-15T08:23:33.957Z,49.07
2017-06-15T08:24:14.520Z,49.54
2017-06-15T08:24:54.974Z,49.76
2017-06-15T08:25:35.528Z,49.44
2017-06-15T08:26:15.944Z,49.63
2017-06-15T08:26:56.473Z,50.31
2017-06-15T08:27:37.138Z,49.34
2017-06-15T08:28:17.528Z,49.24
2017-06-15T08:28:58.052Z,49.44
2017-06-15T08:29:38.532Z,49.73
2017-06-15T08:30:19.046Z,49.54
2017-06-15T08:30:59.556Z,49.63
2017-06-15T08:33:00.371Z,49.9
2017-06-15T08:33:40.848Z,50.68
2017-06-15T08:34:21.347Z,50.68
2017-06-15T08:35:01.861Z,49.9
2017-06-15T08:35:42.350Z,50.29
2017-06-15T08:36:22.886Z,50.09
2017-06-15T08:37:03.348Z,50.38
2017-06-15T08:37:43.975Z,50.48
2017-06-15T08:38:24.687Z,50.29
2017-06-15T08:39:05.359Z,50.48
2017-06-15T08:39:46.613Z,50.46
2017-06-15T08:40:28.488Z,50.85
2017-06-15T08:41:08.996Z,50.95
2017-06-15T08:41:50.101Z,50.75
2017-06-15T08:42:33.476Z,51.11
2017-06-15T08:43:14.407Z,51.5
2017-06-15T08:43:55.327Z,51.23
2017-06-15T08:44:35.825Z,51.21
2017-06-15T08:45:17.761Z,51.6
2017-06-15T08:45:58.558Z,51.31
2017-06-15T08:46:39.122Z,50.82
2017-06-15T08:47:19.767Z,50.63
2017-06-15T08:48:00.405Z,51.21
2017-06-15T08:48:41.000Z,51.5
2017-06-15T08:49:21.462Z,51.4
2017-06-15T08:50:02.185Z,51.4
2017-06-15T08:50:42.609Z,51.5
2017-06-15T08:51:23.221Z,51.99
2017-06-15T08:52:03.694Z,51.6
2017-06-15T08:52:44.233Z,52.28
2017-06-15T08:53:24.796Z,52.19
2017-06-15T08:54:05.487Z,51.89
2017-06-15T08:54:46.041Z,52.09
2017-06-15T08:55:26.584Z,52.11
2017-06-15T08:56:07.076Z,51.72
2017-06-15T08:56:47.637Z,51.43
2017-06-15T08:57:28.154Z,51.43
2017-06-15T08:58:08.872Z,51.33
2017-06-15T08:58:49.517Z,51.23
2017-06-15T08:59:30.125Z,51.23
2017-06-15T09:00:10.837Z,51.43
2017-06-15T09:00:51.346Z,51.82
2017-06-15T09:01:31.913Z,51.11
2017-06-15T09:02:12.408Z,51.5
2017-06-15T09:02:52.888Z,51.6
2017-06-15T09:03:33.437Z,51.89
2017-06-15T09:04:13.857Z,51.89
2017-06-15T09:04:54.352Z,51.89
2017-06-15T09:05:34.877Z,51.6
2017-06-15T09:06:15.387Z,51.6
2017-06-15T09:06:55.935Z,51.89
2017-06-15T09:07:36.429Z,51.7
2017-06-15T09:08:16.961Z,52.09
2017-06-15T09:08:57.447Z,52.19
2017-06-15T09:09:37.942Z,51.99
2017-06-15T09:10:18.517Z,52.67
2017-06-15T09:10:58.959Z,52.57
2017-06-15T09:11:39.455Z,52.67
2017-06-15T09:12:19.951Z,52.28
2017-06-15T09:13:00.482Z,52.19
2017-06-15T09:13:41.019Z,52.47
2017-06-15T09:14:21.743Z,52.47
2017-06-15T09:15:02.285Z,52.37
2017-06-15T09:15:42.872Z,52.47
2017-06-15T09:16:23.287Z,52.37
2017-06-15T09:17:03.821Z,52.57
2017-06-15T09:17:44.521Z,52.96
2017-06-15T09:18:27.393Z,52.76
2017-06-15T09:19:08.128Z,52.67
2017-06-15T09:19:48.566Z,52.67
2017-06-15T09:20:29.308Z,52.86
2017-06-15T09:21:09.811Z,52.37
2017-06-15T09:21:50.369Z,52.47
2017-06-15T09:22:30.892Z,52.11
2017-06-15T09:23:11.408Z,52.4
2017-06-15T09:23:51.892Z,52.01